Time;durP1;ratioP1;P1;durP2;ratioP2;P2;SDS_P1;SDS_P2;PMS_P1;PMS_P2;Temp;Humidity;BMP_temperature;BMP_pressure;BME280_temperature;BME280_humidity;BME280_pressure;Samples;Min_cycle;Max_cycle;Signal;HPM_P1;HPM_P2
2022/06/07 00:01:01;;;;;;;8.02;6.55;;;;;;;13.77;88.48;100689.06;6194068;23;20028;-81
2022/06/07 00:03:29;;;;;;;8.07;6.68;;;;;;;13.75;88.42;100680.53;6194132;23;20032;-81
2022/06/07 00:05:55;;;;;;;11.88;6.72;;;;;;;13.73;88.47;100672.00;6193121;23;20021;-82
2022/06/07 00:08:23;;;;;;;7.30;6.20;;;;;;;13.67;88.85;100675.34;6190877;23;20032;-81
2022/06/07 00:10:51;;;;;;;9.27;6.47;;;;;;;13.58;88.92;100672.78;6191178;23;20117;-80
2022/06/07 00:13:19;;;;;;;9.85;6.97;;;;;;;13.60;89.07;100676.06;6191008;23;20025;-82
2022/06/07 00:15:46;;;;;;;9.57;6.93;;;;;;;13.51;89.32;100663.94;6194941;23;20025;-82
2022/06/07 00:18:15;;;;;;;11.77;6.15;;;;;;;13.52;89.10;100665.59;6194429;23;20048;-82
2022/06/07 00:20:42;;;;;;;8.65;6.82;;;;;;;13.46;88.96;100666.28;6195577;23;20109;-82
2022/06/07 00:23:12;;;;;;;9.40;6.25;;;;;;;13.50;88.79;100670.19;6198135;23;20032;-83
2022/06/07 00:25:40;;;;;;;9.15;6.32;;;;;;;13.47;88.50;100664.47;6199648;23;20035;-81
2022/06/07 00:28:07;;;;;;;6.65;5.63;;;;;;;13.46;88.30;100666.28;6194657;23;20021;-81
2022/06/07 00:30:35;;;;;;;8.10;5.82;;;;;;;13.50;87.50;100659.69;6201324;23;20017;-81
2022/06/07 00:33:02;;;;;;;9.25;5.57;;;;;;;13.54;86.72;100660.97;6201899;23;20020;-82
2022/06/07 00:35:31;;;;;;;9.85;5.43;;;;;;;13.50;86.24;100656.25;6195829;23;20052;-82
2022/06/07 00:37:58;;;;;;;7.35;5.40;;;;;;;13.47;86.10;100657.41;6191533;23;20083;-81
2022/06/07 00:40:24;;;;;;;8.07;5.15;;;;;;;13.48;85.53;100661.66;6192569;23;20037;-81
2022/06/07 00:42:51;;;;;;;7.97;5.10;;;;;;;13.52;84.76;100651.63;6191290;23;20028;-80
2022/06/07 00:45:20;;;;;;;6.00;4.78;;;;;;;13.55;83.88;100648.66;6190384;23;20035;-80
2022/06/07 00:47:47;;;;;;;6.57;4.78;;;;;;;13.56;83.54;100651.09;6188972;23;20021;-83
2022/06/07 00:50:21;;;;;;;6.75;5.03;;;;;;;13.53;83.86;100650.63;6189498;23;20027;-82
2022/06/07 00:52:49;;;;;;;5.53;4.70;;;;;;;13.58;83.58;100651.75;6188344;23;20096;-82
2022/06/07 00:55:17;;;;;;;9.48;5.18;;;;;;;13.56;83.48;100652.91;6189343;23;20024;-80
2022/06/07 00:57:45;;;;;;;7.80;4.90;;;;;;;13.57;83.40;100650.09;6192479;23;20025;-81
2022/06/07 01:00:15;;;;;;;7.07;5.03;;;;;;;13.58;83.12;100649.13;6200900;23;20051;-81
2022/06/07 01:02:44;;;;;;;7.50;4.88;;;;;;;13.57;83.30;100651.91;6199986;23;20025;-82
2022/06/07 01:05:13;;;;;;;6.38;4.75;;;;;;;13.51;83.12;100642.09;6203242;23;20049;-81
2022/06/07 01:13:10;;;;;;;10.60;5.20;;;;;;;13.59;82.28;100648.13;6195123;23;20108;-82
2022/06/07 01:15:37;;;;;;;7.13;5.03;;;;;;;13.54;82.64;100658.34;6194326;23;20025;-82
2022/06/07 01:18:04;;;;;;;8.98;4.60;;;;;;;13.46;83.17;100655.75;6193462;23;20098;-82
2022/06/07 01:20:31;;;;;;;7.60;4.63;;;;;;;13.44;82.89;100652.50;6193547;23;20028;-82
2022/06/07 01:23:00;;;;;;;5.90;4.60;;;;;;;13.39;83.30;100657.44;6191186;23;20029;-83
2022/06/07 01:25:27;;;;;;;8.93;4.40;;;;;;;13.35;83.44;100653.53;6190923;23;20025;-84
2022/06/07 01:27:53;;;;;;;7.85;4.88;;;;;;;13.28;83.67;100653.41;6191525;23;20048;-81
2022/06/07 01:30:21;;;;;;;5.07;4.50;;;;;;;13.22;84.14;100658.56;6191665;23;20068;-81
2022/06/07 01:32:48;;;;;;;6.30;4.70;;;;;;;13.17;84.13;100656.44;6191038;23;20079;-79
2022/06/07 01:35:14;;;;;;;6.90;4.60;;;;;;;13.14;84.21;100650.69;6192833;23;20032;-81
2022/06/07 01:37:41;;;;;;;8.23;4.57;;;;;;;13.13;84.53;100654.28;6192997;23;20501;-81
2022/06/07 01:42:55;;;;;;;6.05;4.55;;;;;;;12.93;84.54;100644.19;6192419;23;20039;-81
2022/06/07 01:45:22;;;;;;;5.40;4.47;;;;;;;12.93;84.98;100648.63;6190913;23;20056;-82
2022/06/07 01:47:49;;;;;;;7.38;4.97;;;;;;;12.91;84.98;100648.78;6187635;23;20057;-81
2022/06/07 01:50:17;;;;;;;7.00;4.60;;;;;;;12.91;84.72;100655.84;6187954;23;20041;-82
2022/06/07 01:52:43;;;;;;;6.85;4.93;;;;;;;12.92;85.09;100647.81;6188722;23;20025;-81
2022/06/07 01:55:12;;;;;;;7.28;4.85;;;;;;;12.94;85.50;100645.00;6188740;23;20333;-83
2022/06/07 01:57:38;;;;;;;5.75;5.05;;;;;;;12.91;85.29;100640.91;6190816;23;20409;-82
2022/06/07 02:00:06;;;;;;;6.35;4.72;;;;;;;12.91;85.38;100629.59;6188496;23;20048;-81
2022/06/07 02:02:33;;;;;;;6.53;4.82;;;;;;;12.86;85.05;100645.84;6189057;23;20032;-82
2022/06/07 02:04:59;;;;;;;7.72;4.70;;;;;;;12.84;85.27;100644.38;6190560;23;20068;-83
2022/06/07 02:07:26;;;;;;;12.10;5.93;;;;;;;12.79;85.24;100642.28;6192710;23;20025;-83
2022/06/07 02:09:53;;;;;;;8.55;4.70;;;;;;;12.70;85.53;100632.00;6195588;23;20017;-84
2022/06/07 02:12:21;;;;;;;7.43;4.85;;;;;;;12.63;86.00;100631.84;6211668;23;20008;-84
2022/06/07 02:14:48;;;;;;;8.27;4.82;;;;;;;12.59;86.16;100635.78;6211351;23;20021;-82
2022/06/07 02:17:15;;;;;;;8.98;4.90;;;;;;;12.51;86.34;100630.56;6213076;23;20021;-81
2022/06/07 02:19:43;;;;;;;7.10;5.40;;;;;;;12.41;86.77;100616.81;6210627;23;20017;-82
2022/06/07 02:22:09;;;;;;;6.53;4.75;;;;;;;12.42;86.82;100623.69;6209045;23;20055;-82
2022/06/07 02:24:36;;;;;;;7.18;4.85;;;;;;;12.39;86.50;100616.16;6198256;23;20053;-82
2022/06/07 02:27:05;;;;;;;6.25;4.80;;;;;;;12.37;86.47;100615.50;6198858;23;20119;-84
2022/06/07 02:29:36;;;;;;;6.10;4.55;;;;;;;12.38;86.04;100622.38;6193405;23;20079;-83
2022/06/07 02:32:06;;;;;;;7.55;4.75;;;;;;;12.29;86.26;100613.72;6193816;23;20032;-82
2022/06/07 02:34:34;;;;;;;8.40;4.55;;;;;;;12.25;86.67;100613.25;6193598;23;20090;-83
2022/06/07 02:37:04;;;;;;;7.20;4.95;;;;;;;12.22;86.84;100612.78;6196345;23;20024;-82
2022/06/07 02:39:32;;;;;;;5.55;4.90;;;;;;;12.25;87.04;100617.69;6194914;23;20020;-84
2022/06/07 02:42:01;;;;;;;5.32;4.40;;;;;;;12.25;86.35;100613.25;6195588;23;20043;-82
2022/06/07 02:44:28;;;;;;;6.43;4.63;;;;;;;12.18;86.65;100617.53;6195775;23;20135;-81
2022/06/07 02:46:56;;;;;;;7.40;4.70;;;;;;;12.13;86.81;100609.34;6201316;23;20032;-82
2022/06/07 02:49:22;;;;;;;5.53;4.20;;;;;;;12.12;86.63;100610.31;6198274;23;20079;-83
2022/06/07 02:51:49;;;;;;;7.82;4.45;;;;;;;12.10;87.11;100612.28;6195160;23;20021;-83
2022/06/07 02:54:16;;;;;;;8.60;4.85;;;;;;;12.09;86.63;100608.03;6195176;23;20032;-83
2022/06/07 02:56:42;;;;;;;6.50;4.85;;;;;;;12.00;86.69;100614.25;6196702;23;20049;-81
2022/06/07 02:59:09;;;;;;;8.15;4.43;;;;;;;11.98;86.93;100613.59;6197551;23;20025;-80
2022/06/07 03:01:35;;;;;;;7.72;4.38;;;;;;;11.93;87.21;100615.91;6201395;23;20021;-81
2022/06/07 03:04:03;;;;;;;8.38;4.57;;;;;;;11.93;87.34;100614.09;6199456;23;20063;-82
2022/06/07 03:06:30;;;;;;;6.75;4.13;;;;;;;11.90;87.32;100611.81;6206216;23;20052;-81
2022/06/07 03:08:57;;;;;;;4.80;4.13;;;;;;;11.91;86.87;100615.25;6200379;23;20025;-83
2022/06/07 03:11:23;;;;;;;6.22;4.60;;;;;;;11.90;86.87;100624.91;6201044;23;20021;-83
2022/06/07 03:13:50;;;;;;;6.70;4.03;;;;;;;11.86;86.81;100609.69;6199783;23;20025;-82
2022/06/07 03:16:17;;;;;;;6.72;4.50;;;;;;;11.88;86.66;100626.06;6195185;23;20028;-81
2022/06/07 03:18:43;;;;;;;5.95;4.30;;;;;;;11.85;86.29;100615.91;6193893;23;20395;-81
2022/06/07 03:21:11;;;;;;;6.80;4.30;;;;;;;11.87;86.31;100619.19;6206484;23;20043;-82
2022/06/07 03:23:38;;;;;;;6.50;4.15;;;;;;;11.84;86.63;100616.88;6200155;23;20042;-83
2022/06/07 03:26:06;;;;;;;9.10;4.43;;;;;;;11.93;86.15;100621.97;6196068;23;20032;-82
2022/06/07 03:28:35;;;;;;;5.30;3.90;;;;;;;12.05;85.03;100616.41;6195071;23;20025;-82
2022/06/07 03:31:06;;;;;;;6.50;4.10;;;;;;;12.02;85.03;100624.59;6196237;23;20028;-82
2022/06/07 03:33:35;;;;;;;4.72;4.10;;;;;;;11.93;84.87;100602.78;6198534;23;20089;-80
2022/06/07 03:36:07;;;;;;;6.30;3.97;;;;;;;12.00;84.67;100616.88;6234641;23;20024;-82
2022/06/07 03:38:35;;;;;;;6.55;4.20;;;;;;;12.01;84.81;100623.78;6234080;23;20024;-81
2022/06/07 03:41:02;;;;;;;6.82;4.30;;;;;;;12.03;84.71;100615.75;6234560;23;20020;-82
2022/06/07 03:43:28;;;;;;;7.82;4.25;;;;;;;12.04;84.45;100622.63;6233923;22;20053;-82
2022/06/07 03:45:55;;;;;;;6.40;4.15;;;;;;;12.07;84.77;100630.16;6232281;23;20067;-82
2022/06/07 03:48:22;;;;;;;6.88;4.15;;;;;;;12.16;84.12;100626.56;6233894;23;20025;-81
2022/06/07 03:50:50;;;;;;;5.53;3.80;;;;;;;12.20;83.54;100622.59;6233302;23;20039;-83
2022/06/07 03:53:17;;;;;;;7.03;4.20;;;;;;;12.17;83.95;100615.06;6232894;23;20476;-83
2022/06/07 03:55:47;;;;;;;6.38;4.15;;;;;;;12.16;83.99;100610.81;6233179;23;20009;-83
2022/06/07 03:58:14;;;;;;;5.68;3.95;;;;;;;12.28;83.98;100633.09;6234701;23;20035;-82
2022/06/07 04:00:41;;;;;;;6.05;4.28;;;;;;;12.45;83.63;100634.69;6235360;23;20021;-81
2022/06/07 04:03:08;;;;;;;5.63;3.75;;;;;;;13.18;81.96;100637.06;6234300;23;20055;-82
2022/06/07 04:05:39;;;;;;;5.18;4.45;;;;;;;13.91;78.28;100623.38;6234273;23;20012;-82
2022/06/07 04:08:13;;;;;;;8.20;3.65;;;;;;;14.83;74.12;100629.19;6235905;23;20048;-82
2022/06/07 04:10:47;;;;;;;4.97;3.65;;;;;;;15.57;70.88;100636.94;6233325;23;20031;-81
2022/06/07 04:13:15;;;;;;;4.00;3.30;;;;;;;16.32;67.72;100633.66;6231885;23;20024;-79
2022/06/07 04:15:42;;;;;;;4.93;3.25;;;;;;;17.03;64.69;100636.06;6234994;23;20365;-81
2022/06/07 04:18:09;;;;;;;5.53;3.17;;;;;;;17.49;63.24;100639.66;6237545;23;20020;-80
2022/06/07 04:20:37;;;;;;;4.82;3.15;;;;;;;17.00;63.63;100633.84;6237876;23;20032;-81
2022/06/07 04:23:04;;;;;;;6.32;3.60;;;;;;;16.45;65.94;100640.88;6237529;23;20020;-81
2022/06/07 04:25:30;;;;;;;4.78;3.58;;;;;;;16.57;65.48;100641.94;6234888;23;20024;-81
2022/06/07 04:27:58;;;;;;;3.83;3.13;;;;;;;17.35;63.37;100642.50;6232929;23;20025;-80
2022/06/07 04:30:25;;;;;;;4.30;3.25;;;;;;;18.32;60.56;100636.66;6230545;23;20021;-82
2022/06/07 04:32:52;;;;;;;4.88;3.15;;;;;;;18.45;59.41;100639.25;6229832;23;20024;-81
2022/06/07 04:35:19;;;;;;;5.10;3.05;;;;;;;18.39;59.33;100635.63;6228507;23;20048;-80
2022/06/07 04:37:46;;;;;;;4.38;2.70;;;;;;;18.26;59.47;100640.13;6229493;23;20025;-79
2022/06/07 04:40:13;;;;;;;4.53;3.03;;;;;;;18.38;59.32;100631.34;6228415;23;20021;-81
2022/06/07 04:42:41;;;;;;;5.60;3.00;;;;;;;18.13;60.44;100633.81;6230130;23;20021;-79
2022/06/07 04:45:14;;;;;;;5.80;3.10;;;;;;;18.99;58.16;100635.44;6230366;23;20031;-80
2022/06/07 04:47:41;;;;;;;;;;;;;;;19.21;56.79;100639.44;6233512;23;20080;-81
2022/06/07 04:50:09;;;;;;;4.88;2.88;;;;;;;18.50;58.81;100639.44;6231029;23;19927;-80
2022/06/07 04:52:36;;;;;;;5.05;3.20;;;;;;;17.81;61.76;100642.59;6233378;23;20027;-80
2022/06/07 04:55:03;;;;;;;5.72;2.90;;;;;;;18.04;60.86;100628.94;6232689;23;20013;-80
2022/06/07 04:57:30;;;;;;;3.78;3.10;;;;;;;17.72;62.13;100638.50;6232869;23;20024;-80
2022/06/07 04:59:57;;;;;;;6.80;3.40;;;;;;;17.64;62.31;100634.19;6232670;23;20059;-81
2022/06/07 05:02:25;;;;;;;5.38;3.30;;;;;;;17.88;61.72;100627.53;6232020;23;20025;-80
2022/06/07 05:04:52;;;;;;;4.53;3.17;;;;;;;18.21;60.53;100635.44;6231826;23;20048;-83
2022/06/07 05:07:23;;;;;;;6.53;3.40;;;;;;;18.56;59.49;100635.97;6233337;23;20024;-82
2022/06/07 05:09:50;;;;;;;4.60;3.30;;;;;;;18.66;59.43;100639.03;6233592;23;20047;-82
2022/06/07 05:12:16;;;;;;;3.83;2.85;;;;;;;18.80;58.97;100627.38;6234179;23;20038;-82
2022/06/07 05:14:44;;;;;;;6.45;3.08;;;;;;;18.01;60.87;100643.38;6233275;23;20025;-82
2022/06/07 05:17:11;;;;;;;5.35;3.13;;;;;;;17.67;62.49;100638.28;6233417;23;20024;-83
2022/06/07 05:19:39;;;;;;;5.82;3.05;;;;;;;17.60;62.43;100640.91;6229791;23;20104;-84
2022/06/07 05:22:06;;;;;;;4.15;3.05;;;;;;;17.37;64.33;100643.09;6232099;23;20020;-82
2022/06/07 05:24:36;;;;;;;4.03;3.20;;;;;;;17.31;64.78;100652.66;6231464;23;20020;-81
2022/06/07 05:27:06;;;;;;;5.80;3.00;;;;;;;17.25;65.70;100645.50;6231520;23;20024;-83
2022/06/07 05:29:40;;;;;;;5.25;2.72;;;;;;;18.35;63.02;100645.00;6231195;23;20051;-82
2022/06/07 05:32:07;;;;;;;4.22;2.90;;;;;;;19.00;60.16;100647.69;6228065;23;20048;-85
2022/06/07 05:34:34;;;;;;;2.78;2.55;;;;;;;19.12;59.97;100651.31;6223925;23;20100;-83
2022/06/07 05:37:02;;;;;;;3.47;2.60;;;;;;;20.38;55.41;100644.09;6226478;23;20079;-82
2022/06/07 05:39:30;;;;;;;5.22;3.00;;;;;;;21.18;52.35;100651.97;6227467;23;20131;-82
2022/06/07 05:41:57;;;;;;;4.22;3.00;;;;;;;22.29;49.82;100661.13;6224943;23;20052;-81
2022/06/07 05:44:26;;;;;;;4.53;2.88;;;;;;;23.04;47.47;100656.66;6222685;23;20031;-82
2022/06/07 05:46:53;;;;;;;5.40;3.05;;;;;;;22.90;46.65;100663.28;6225438;23;20020;-83
2022/06/07 05:49:20;;;;;;;6.60;2.95;;;;;;;23.08;46.57;100652.47;6224309;23;20024;-81
2022/06/07 05:51:47;;;;;;;4.55;2.63;;;;;;;23.54;44.79;100666.69;6219376;23;20138;-80
2022/06/07 05:54:16;;;;;;;4.72;2.63;;;;;;;23.62;44.17;100665.47;6218616;23;20547;-80
2022/06/07 05:56:42;;;;;;;5.05;3.08;;;;;;;24.07;43.97;100658.19;6219357;23;20044;-80
2022/06/07 05:59:10;;;;;;;5.25;2.90;;;;;;;24.00;44.41;100660.22;6219520;23;20491;-81
2022/06/07 06:01:37;;;;;;;4.72;2.70;;;;;;;23.69;43.57;100663.44;6218618;23;20412;-79
2022/06/07 06:04:06;;;;;;;3.92;2.38;;;;;;;24.55;42.68;100656.75;6222030;23;20453;-81
2022/06/07 06:06:33;;;;;;;4.10;2.63;;;;;;;23.82;42.72;100658.59;6220839;23;20619;-80
2022/06/07 06:11:46;;;;;;;8.52;3.00;;;;;;;24.13;42.54;100670.56;6218940;23;20031;-78
2022/06/07 06:14:12;;;;;;;4.57;2.30;;;;;;;24.71;41.85;100663.09;6215211;23;20531;-78
2022/06/07 06:16:39;;;;;;;4.47;2.60;;;;;;;24.70;42.03;100664.97;6214179;23;20510;-79
2022/06/07 06:19:06;;;;;;;4.80;2.00;;;;;;;24.80;41.40;100662.41;6216030;23;20086;-82
2022/06/07 06:21:35;;;;;;;5.13;2.47;;;;;;;24.84;40.88;100643.19;6219758;23;20017;-79
2022/06/07 06:24:02;;;;;;;7.50;2.72;;;;;;;24.59;41.20;100646.34;6218378;23;20052;-79
2022/06/07 06:26:29;;;;;;;5.43;2.58;;;;;;;23.93;42.71;100637.38;6220391;23;20412;-79
2022/06/07 06:28:57;;;;;;;7.03;2.53;;;;;;;24.42;41.80;100628.50;6219229;23;20068;-79
2022/06/07 06:31:26;;;;;;;2.33;2.10;;;;;;;25.65;39.34;100646.75;6218381;23;20052;-78
2022/06/07 06:33:55;;;;;;;3.47;2.47;;;;;;;26.45;37.81;100637.69;6216115;23;20424;-78
2022/06/07 06:36:25;;;;;;;4.25;2.67;;;;;;;26.43;36.80;100637.94;6215383;23;20052;-80
2022/06/07 06:38:52;;;;;;;3.35;2.28;;;;;;;26.84;36.65;100638.09;6216242;23;20024;-80
2022/06/07 06:41:20;;;;;;;4.90;2.17;;;;;;;27.10;35.50;100633.63;6217881;23;20023;-79
2022/06/07 06:43:48;;;;;;;4.13;2.13;;;;;;;26.18;36.23;100629.72;6218325;23;20052;-79
2022/06/07 06:46:19;;;;;;;5.18;2.40;;;;;;;24.44;40.74;100628.25;6220017;23;20024;-79
2022/06/07 06:48:45;;;;;;;4.15;2.45;;;;;;;25.23;38.79;100647.41;6219115;23;20021;-78
2022/06/07 06:51:14;;;;;;;6.05;2.33;;;;;;;25.40;40.25;100642.75;6220637;23;20094;-79
2022/06/07 06:53:42;;;;;;;4.68;2.20;;;;;;;25.43;39.31;100636.09;6220485;23;20386;-78
2022/06/07 06:56:11;;;;;;;5.13;2.45;;;;;;;24.57;40.74;100637.78;6220435;23;20524;-80
2022/06/07 06:58:37;;;;;;;5.25;2.33;;;;;;;23.73;43.11;100635.19;6218967;23;20028;-78
2022/06/07 07:01:06;;;;;;;4.60;2.42;;;;;;;22.80;44.55;100644.41;6219249;23;20021;-79
2022/06/07 07:03:36;;;;;;;3.17;2.45;;;;;;;23.61;42.94;100655.84;6218280;23;20025;-78
2022/06/07 07:06:04;;;;;;;3.47;2.30;;;;;;;23.85;41.57;100651.94;6219781;23;20043;-79
2022/06/07 07:08:31;;;;;;;2.95;2.00;;;;;;;24.34;40.73;100628.13;6217996;23;20020;-79
2022/06/07 07:11:07;;;;;;;5.30;2.60;;;;;;;25.12;38.82;100646.47;6219017;23;20263;-79
2022/06/07 07:13:34;;;;;;;3.53;2.30;;;;;;;25.40;39.34;100641.94;6220069;23;20025;-79
2022/06/07 07:16:00;;;;;;;2.50;1.95;;;;;;;25.79;37.50;100642.59;6220610;23;20103;-81
2022/06/07 07:18:27;;;;;;;6.13;2.92;;;;;;;24.77;39.62;100644.19;6222139;23;20024;-81
2022/06/07 07:20:55;;;;;;;3.58;2.20;;;;;;;24.16;39.92;100643.34;6222061;23;20024;-80
2022/06/07 07:23:24;;;;;;;7.07;2.67;;;;;;;24.39;40.82;100636.22;6220367;23;20027;-80
2022/06/07 07:25:51;;;;;;;3.35;2.28;;;;;;;23.73;42.57;100637.84;6221134;23;20404;-80
2022/06/07 07:28:18;;;;;;;5.15;2.42;;;;;;;23.16;42.40;100638.69;6221959;23;20024;-80
2022/06/07 07:30:45;;;;;;;6.82;3.30;;;;;;;22.14;44.48;100646.44;6221211;23;20024;-80
2022/06/07 07:33:12;;;;;;;4.00;2.40;;;;;;;21.74;46.97;100640.13;6222838;23;20032;-81
2022/06/07 07:35:39;;;;;;;5.25;2.70;;;;;;;21.11;48.79;100638.75;6222695;23;20035;-80
2022/06/07 07:38:07;;;;;;;4.88;2.85;;;;;;;20.54;49.64;100643.50;6223552;23;20024;-81
2022/06/07 07:40:33;;;;;;;4.50;2.63;;;;;;;20.15;50.65;100639.38;6223633;23;20024;-80
2022/06/07 07:43:00;;;;;;;5.55;3.00;;;;;;;20.35;50.98;100643.69;6222469;23;20386;-79
2022/06/07 07:45:27;;;;;;;5.95;3.10;;;;;;;20.98;49.54;100651.41;6221668;23;20025;-80
2022/06/07 07:47:53;;;;;;;6.10;2.60;;;;;;;21.55;47.52;100646.56;6223472;23;20028;-80
2022/06/07 07:50:20;;;;;;;5.60;2.38;;;;;;;21.76;46.38;100649.47;6222501;23;20036;-80
2022/06/07 07:52:48;;;;;;;2.50;2.30;;;;;;;21.68;46.32;100641.03;6224010;23;20025;-80
2022/06/07 07:55:16;;;;;;;4.85;2.40;;;;;;;22.36;45.00;100643.19;6222228;23;20030;-80
2022/06/07 07:57:43;;;;;;;2.95;2.13;;;;;;;23.42;41.57;100637.31;6222716;23;20024;-79
2022/06/07 08:00:11;;;;;;;7.35;2.40;;;;;;;22.43;44.24;100639.34;6222121;23;20025;-80
2022/06/07 08:02:37;;;;;;;4.63;2.67;;;;;;;22.34;45.26;100634.59;6222467;23;20024;-79
2022/06/07 08:05:05;;;;;;;4.70;2.28;;;;;;;21.93;44.89;100654.97;6222196;23;20101;-79
2022/06/07 08:07:32;;;;;;;6.07;2.53;;;;;;;21.55;45.52;100639.38;6222987;23;20338;-80
2022/06/07 08:10:00;;;;;;;6.35;2.97;;;;;;;21.21;47.19;100646.22;6222783;23;20024;-81
2022/06/07 08:12:29;;;;;;;7.80;2.55;;;;;;;21.28;47.13;100640.78;6223532;23;20276;-80
2022/06/07 08:14:55;;;;;;;7.28;2.78;;;;;;;21.53;47.72;100639.59;6222297;23;20034;-79
2022/06/07 08:17:22;;;;;;;3.63;2.53;;;;;;;20.95;49.51;100641.19;6222040;23;20033;-79
2022/06/07 08:19:49;;;;;;;7.57;3.10;;;;;;;20.67;49.41;100633.78;6222883;23;20023;-81
2022/06/07 08:22:16;;;;;;;3.78;2.80;;;;;;;21.13;49.69;100630.53;6227162;23;20024;-79
2022/06/07 08:24:44;;;;;;;7.00;2.85;;;;;;;21.44;48.85;100630.31;6224728;23;20025;-78
2022/06/07 08:27:10;;;;;;;8.57;3.08;;;;;;;21.85;48.50;100624.13;6223079;23;20028;-80
2022/06/07 08:29:39;;;;;;;9.95;2.95;;;;;;;22.22;47.20;100629.28;6220837;23;20024;-80
2022/06/07 08:32:07;;;;;;;7.05;3.33;;;;;;;22.36;46.34;100621.84;6222497;23;20020;-80
2022/06/07 08:37:34;;;;;;;5.47;3.10;;;;;;;21.71;47.96;100625.41;6221947;23;20548;-80
2022/06/07 08:40:02;;;;;;;7.53;3.25;;;;;;;21.98;49.27;100619.63;6221819;23;20016;-81
2022/06/07 08:42:32;;;;;;;7.95;3.53;;;;;;;21.41;49.64;100630.78;6221268;23;20104;-79
2022/06/07 08:45:05;;;;;;;10.20;3.60;;;;;;;21.39;50.71;100616.88;6221146;23;20028;-80
2022/06/07 08:47:36;;;;;;;6.65;3.30;;;;;;;21.23;49.44;100622.88;6221543;23;20473;-80
2022/06/07 08:50:14;;;;;;;7.60;3.00;;;;;;;21.29;50.61;100623.78;6221067;23;20020;-80
2022/06/07 08:52:42;;;;;;;8.80;3.40;;;;;;;21.19;50.64;100624.31;6219591;23;20020;-79
2022/06/07 08:55:19;;;;;;;9.30;3.22;;;;;;;21.07;50.92;100620.78;6219695;23;20084;-78
2022/06/07 08:57:54;;;;;;;7.97;3.20;;;;;;;21.04;50.96;100619.38;6219127;23;20021;-79
2022/06/07 09:00:25;;;;;;;6.50;3.13;;;;;;;20.88;51.14;100620.00;6220340;23;20024;-79
2022/06/07 09:03:29;;;;;;;5.00;2.92;;;;;;;21.22;52.29;100621.25;6220388;23;20056;-79
2022/06/07 09:05:58;;;;;;;8.00;3.10;;;;;;;21.54;51.47;100621.78;6219864;23;20068;-79
2022/06/07 09:08:26;;;;;;;7.60;3.10;;;;;;;22.34;50.48;100613.28;6219486;23;20412;-78
2022/06/07 09:13:38;;;;;;;8.55;3.67;;;;;;;21.98;49.42;100614.31;6219302;23;20083;-78
2022/06/07 09:16:06;;;;;;;6.15;2.83;;;;;;;22.03;50.09;100607.28;6219382;23;20162;-79
2022/06/07 09:18:34;;;;;;;6.55;3.00;;;;;;;22.08;49.49;100598.59;6220658;23;20363;-79
2022/06/07 09:21:08;;;;;;;4.07;2.72;;;;;;;21.67;49.38;100599.47;6219636;23;20087;-79
2022/06/07 09:23:43;;;;;;;4.30;2.58;;;;;;;22.03;48.88;100591.28;6222255;23;20092;-79
2022/06/07 09:26:20;;;;;;;5.90;2.75;;;;;;;21.23;50.56;100601.56;6223721;23;20024;-79
2022/06/07 09:28:48;;;;;;;6.03;3.03;;;;;;;21.40;50.56;100597.19;6220384;23;20489;-79
2022/06/07 09:31:21;;;;;;;4.20;2.55;;;;;;;21.68;50.54;100599.25;6218513;23;20032;-79
2022/06/07 09:33:52;;;;;;;5.38;2.80;;;;;;;21.39;50.41;100584.94;6216681;22;20020;-86
2022/06/07 09:36:26;;;;;;;11.17;2.77;;;;;;;21.83;50.06;100593.44;6166018;23;20466;-85
2022/06/07 09:38:59;;;;;;;7.10;2.97;;;;;;;22.36;48.77;100584.53;6164034;23;20036;-85
2022/06/07 09:41:38;;;;;;;8.45;3.13;;;;;;;22.64;48.61;100565.94;6167358;23;20112;-84
2022/06/07 09:44:25;;;;;;;11.15;3.10;;;;;;;22.58;47.61;100576.72;6160261;23;20025;-86
2022/06/07 09:47:00;;;;;;;8.00;3.35;;;;;;;22.35;48.33;100561.59;6139325;23;20025;-84
2022/06/07 09:49:31;;;;;;;7.18;2.65;;;;;;;22.72;48.59;100584.19;6143297;23;20026;-86
2022/06/07 09:52:07;;;;;;;5.45;2.53;;;;;;;23.22;45.98;100566.72;6144655;23;20245;-85
2022/06/07 09:54:42;;;;;;;6.00;2.72;;;;;;;23.06;46.34;100589.69;6141361;23;20064;-86
2022/06/07 09:57:26;;;;;;;4.53;2.75;;;;;;;22.34;50.16;100573.28;6145384;23;20391;-83
2022/06/07 10:00:07;;;;;;;2.90;1.88;;;;;;;22.79;49.52;100584.09;6147239;23;20029;-84
2022/06/07 10:03:00;;;;;;;3.22;2.40;;;;;;;23.53;47.38;100573.41;6140365;23;20320;-85
2022/06/07 10:05:31;;;;;;;4.45;2.30;;;;;;;23.72;45.83;100572.13;6140562;23;20078;-86
2022/06/07 10:08:07;;;;;;;4.68;2.70;;;;;;;23.66;44.73;100578.44;6147339;23;20026;-86
2022/06/07 10:10:41;;;;;;;5.00;2.55;;;;;;;23.03;45.28;100574.16;6147908;23;20026;-87
2022/06/07 10:13:22;;;;;;;7.47;2.55;;;;;;;23.34;45.74;100568.28;6148712;23;20014;-83
2022/06/07 10:15:59;;;;;;;7.80;2.70;;;;;;;23.97;44.43;100564.50;6148793;23;20026;-84
2022/06/07 10:18:41;;;;;;;6.70;2.47;;;;;;;24.24;43.67;100574.47;6146011;23;20475;-84
2022/06/07 10:21:23;;;;;;;5.70;2.88;;;;;;;24.16;43.65;100573.81;6137148;23;20026;-83
2022/06/07 10:24:08;;;;;;;6.10;2.72;;;;;;;23.32;45.57;100565.03;6135781;23;20022;-84
2022/06/07 10:26:54;;;;;;;10.98;3.20;;;;;;;23.63;44.76;100554.91;6135732;23;20026;-83
2022/06/07 10:29:34;;;;;;;4.18;2.55;;;;;;;23.98;44.51;100546.59;6136115;23;20026;-85
2022/06/07 10:32:12;;;;;;;6.90;3.03;;;;;;;23.83;44.45;100547.19;6135910;23;20026;-82
2022/06/07 10:34:52;;;;;;;6.30;2.80;;;;;;;24.19;44.46;100547.66;6134622;23;20022;-85
2022/06/07 10:37:31;;;;;;;7.35;2.70;;;;;;;24.34;44.88;100548.69;6135932;23;20405;-83
2022/06/07 10:40:12;;;;;;;4.88;2.60;;;;;;;24.22;44.96;100544.50;6136192;23;20018;-83
2022/06/07 10:42:46;;;;;;;5.03;2.67;;;;;;;24.02;46.45;100529.81;6136320;23;20030;-83
2022/06/07 10:45:19;;;;;;;6.13;2.95;;;;;;;23.53;47.13;100541.34;6135559;23;20081;-82
2022/06/07 10:47:49;;;;;;;5.15;2.78;;;;;;;;;;6139752;23;20081;-84
2022/06/07 10:50:22;;;;;;;9.30;2.80;;;;;;;23.14;45.95;100515.38;6137061;23;20549;-86
2022/06/07 10:53:03;;;;;;;5.40;2.80;;;;;;;23.05;47.13;100529.34;6141454;23;20033;-83
2022/06/07 10:55:37;;;;;;;6.13;2.80;;;;;;;23.63;45.87;100525.53;6146415;23;20018;-83
2022/06/07 10:58:24;;;;;;;4.32;2.72;;;;;;;23.69;45.08;100519.16;6136966;23;20050;-81
2022/06/07 11:01:00;;;;;;;4.53;2.50;;;;;;;23.98;45.77;100531.38;6135143;23;20036;-82
2022/06/07 11:03:41;;;;;;;4.97;2.83;;;;;;;24.20;45.70;100523.34;6147126;23;20041;-84
2022/06/07 11:09:21;;;;;;;5.20;2.58;;;;;;;24.10;44.78;100526.69;6149565;23;20040;-82
2022/06/07 11:11:53;;;;;;;3.53;2.72;;;;;;;23.53;45.06;100523.50;6149809;23;20029;-81
2022/06/07 11:14:41;;;;;;;9.48;3.22;;;;;;;23.34;47.54;100530.91;6150418;23;20017;-82
2022/06/07 11:17:25;;;;;;;5.90;2.67;;;;;;;23.14;48.32;100523.38;6151808;23;20045;-85
2022/06/07 11:19:55;;;;;;;5.43;3.00;;;;;;;23.24;49.00;100511.22;6150710;23;20029;-86
2022/06/07 11:22:30;;;;;;;6.25;3.00;;;;;;;23.66;48.39;100525.00;6147622;23;20021;-86
2022/06/07 11:25:00;;;;;;;5.75;2.80;;;;;;;23.33;49.35;100525.81;6142683;23;20076;-87
2022/06/07 11:27:41;;;;;;;5.88;3.53;;;;;;;22.91;49.78;100517.34;6140867;23;20054;-84
2022/06/07 11:30:45;;;;;;;4.10;3.00;;;;;;;22.23;50.92;100526.13;6141092;23;20304;-82
2022/06/07 11:33:37;;;;;;;4.32;2.95;;;;;;;22.23;51.84;100526.13;6081135;23;20536;-82
2022/06/07 11:36:27;;;;;;;5.90;2.88;;;;;;;22.02;53.83;100530.25;6140114;23;20032;-82
2022/06/07 11:39:01;;;;;;;5.53;2.97;;;;;;;21.60;55.49;100545.50;6140653;23;20053;-84
2022/06/07 11:41:44;;;;;;;5.65;3.25;;;;;;;21.04;59.21;100554.72;6138965;23;20084;-83
2022/06/07 11:44:30;;;;;;;7.18;3.10;;;;;;;20.70;59.82;100565.00;6139214;23;20346;-84
2022/06/07 11:47:02;;;;;;;5.45;3.10;;;;;;;20.26;63.98;100567.97;6138201;23;20050;-84
2022/06/07 11:49:42;;;;;;;8.00;4.00;;;;;;;19.68;70.20;100577.09;6136868;23;20201;-84
2022/06/07 11:52:24;;;;;;;5.85;4.10;;;;;;;19.12;73.28;100577.03;6137811;23;20022;-84
2022/06/07 11:54:55;;;;;;;5.53;4.35;;;;;;;19.26;75.36;100572.47;6138893;23;20026;-84
2022/06/07 11:57:30;;;;;;;7.10;4.35;;;;;;;19.22;76.51;100556.16;6140492;23;20494;-84
2022/06/07 12:00:01;;;;;;;7.95;4.45;;;;;;;19.56;75.72;100549.63;6138882;23;20041;-85